Hollis, New Hampshire
Current Conditions -  °F | °C
As of 6:14 AM on Thursday 23 Oct 2014 (Local Time) from KASH Reporting Station
Moderate Rain Moderate Rain  
Wind Chill:   Ceiling: 1100
Heat Index:   Visibility: 1.7mi
Dew Point:   Wind: 5mph
Humidity: 100%   Direction: NA
Pressure: 29.77"   Gusts: NA
Location:  42.74°N, 71.59°W
Report Text: KASH 231014Z VRB04KT 1 3/4SM RA BR OVC011 09/09 A2977 RMK AO2 P0000 $
Loading
Personal Weather Stations






























Interactive Weather Map
Tropical Storm Tracking
New forecast layout! Learn more

10-Day Weather Forecast

Advertisements
Track Severe Weather on mobile